Ulisse — ILTD — position and weather

sailwx.info

Track history (hours):
 
Tides and Currents Weather Stations Pressure Air Temp Water Temp Dewpoint Dewpoint Depression Visibility Wind Speed Wind Dir Waves Ship Positions

Ulisse

Last reported at 2018-May-24 16:04 UTC. Time now 2018-May-25 09:11 UTC.
Position N 38°08' E 013°22'.

Length 94 m; draft 3.5 m.

Type: Ship (hazmat cat B). MMSI: 247054500.

Date/timePositionNaut miles runAvg speedWind from/ knotsBaromVisibWave heightAir tempDewpointWater temp
2018-May-24 16:04N 38°08' E 013°22'0 0.0
2018-May-24 15:10N 38°08' E 013°22'1 6.2
2018-May-24 15:00N 38°07' E 013°23'1 1.5
2018-May-24 14:30N 38°08' E 013°24'5 9.8
2018-May-24 13:59N 38°13' E 013°24'610.5
2018-May-24 13:25N 38°19' E 013°23'7 1.2
2018-May-24 07:38N 38°25' E 013°20'210.2
2018-May-24 07:28N 38°23' E 013°21'510.2
2018-May-24 07:00N 38°19' E 013°22'510.6
2018-May-24 06:30N 38°14' E 013°24'510.7
2018-May-24 06:00N 38°09' E 013°26'3 6.2
2018-May-24 05:30N 38°08' E 013°22'0 0.0
2018-May-24 05:00N 38°08' E 013°22'0 0.0
2018-May-24 04:30N 38°08' E 013°22'0 0.0
2018-May-24 04:00N 38°08' E 013°22'1 1.3
2018-May-24 03:27N 38°08' E 013°22'0 0.0
2018-May-24 02:39N 38°08' E 013°22'0 0.0
2018-May-24 02:03N 38°08' E 013°22'0 0.0
2018-May-24 01:33N 38°08' E 013°22'0 0.0
2018-May-24 01:21N 38°08' E 013°22'0 0.0
2018-May-24 00:27N 38°08' E 013°22'0 0.0
2018-May-23 21:21N 38°08' E 013°22'0 0.0
2018-May-23 18:15N 38°08' E 013°22'0 0.0
2018-May-23 17:57N 38°08' E 013°22'0 0.0
2018-May-23 17:15N 38°08' E 013°22'0 0.0
2018-May-23 16:57N 38°08' E 013°22'0 0.0
2018-May-23 15:27N 38°08' E 013°23'0 0.0
2018-May-23 11:30N 38°08' E 013°22'0 0.0
2018-May-23 11:00N 38°08' E 013°22'0 0.0
2018-May-23 08:27N 38°08' E 013°22'0 0.0
2018-May-23 04:57N 38°08' E 013°23'0 0.0
2018-May-23 04:09N 38°08' E 013°23'0 0.0
2018-May-23 03:39N 38°08' E 013°22'0 0.0
2018-May-23 03:27N 38°08' E 013°22'0 0.0
2018-May-23 02:57N 38°08' E 013°23'0 0.0
2018-May-23 02:27N 38°08' E 013°22'0 0.0
2018-May-23 01:57N 38°08' E 013°22'0 0.0
2018-May-23 01:27N 38°08' E 013°22'0 0.0
2018-May-23 01:00N 38°08' E 013°22'0 0.0
2018-May-23 00:30N 38°08' E 013°22'0 0.0
2018-May-23 00:00N 38°08' E 013°22'0 0.0
2018-May-22 23:30N 38°08' E 013°23'0 0.0
2018-May-22 23:00N 38°08' E 013°22'0 0.0
2018-May-22 22:30N 38°08' E 013°22'0 0.0
2018-May-22 22:00N 38°08' E 013°22'0 0.0
2018-May-22 21:09N 38°08' E 013°23'0 0.0
2018-May-22 20:57N 38°08' E 013°22'0 0.0
2018-May-22 20:27N 38°08' E 013°22'0 0.0
2018-May-22 19:57N 38°08' E 013°22'0 0.0
2018-May-22 17:57N 38°08' E 013°22'0 0.0
2018-May-22 16:27N 38°08' E 013°22'0 0.0
2018-May-22 15:57N 38°08' E 013°22'0 0.0
2018-May-22 15:27N 38°08' E 013°23'0 0.0
2018-May-22 14:57N 38°08' E 013°22'0 0.0
2018-May-22 14:09N 38°08' E 013°22'0 0.0
2018-May-22 12:03N 38°08' E 013°22'0 0.0
2018-May-22 11:57N 38°08' E 013°22'0 0.0
2018-May-22 11:27N 38°08' E 013°23'0 0.0
2018-May-22 10:51N 38°08' E 013°22'0 0.0
2018-May-22 10:27N 38°08' E 013°23'0 0.0
2018-May-22 09:57N 38°08' E 013°22'0 0.0
2018-May-22 09:21N 38°08' E 013°22'0 0.0
2018-May-22 01:48N 38°08' E 013°23'0 0.0
2018-May-22 01:30N 38°08' E 013°22'0 0.0
2018-May-22 00:48N 38°08' E 013°22'0 0.0
2018-May-22 00:30N 38°08' E 013°22'0 0.0
2018-May-21 23:54N 38°08' E 013°23'0 0.0
2018-May-21 23:30N 38°08' E 013°23'0 0.0
2018-May-21 22:57N 38°08' E 013°22'0 0.0
2018-May-21 22:30N 38°08' E 013°22'0 0.0
2018-May-21 21:54N 38°08' E 013°23'0 0.0
2018-May-21 21:15N 38°08' E 013°23'0 0.0
2018-May-21 20:57N 38°08' E 013°23'0 0.0
2018-May-21 15:58N 38°08' E 013°22'1 1.7
2018-May-21 15:30N 38°08' E 013°22'0 0.0
2018-May-21 15:00N 38°08' E 013°22'3 4.9
2018-May-21 14:25N 38°10' E 013°25'610.7
2018-May-21 13:54N 38°15' E 013°23'510.7
2018-May-21 13:26N 38°20' E 013°22'410.2
2018-May-21 13:00N 38°24' E 013°21'510.6
2018-May-21 12:29N 38°29' E 013°19'6 1.2
2018-May-21 07:07N 38°23' E 013°20'111.0
2018-May-21 07:00N 38°22' E 013°21'510.9
2018-May-21 06:30N 38°17' E 013°23'610.9
2018-May-21 05:59N 38°11' E 013°25'4 8.7
2018-May-21 05:30N 38°07' E 013°23'1 2.0
2018-May-21 05:00N 38°08' E 013°22'0 0.0
2018-May-21 04:30N 38°08' E 013°22'0 0.0
2018-May-21 04:00N 38°08' E 013°22'1 1.4
2018-May-21 03:30N 38°08' E 013°22'0 0.0
2018-May-19 07:36N 38°08' E 013°22'0 0.0
2018-May-19 07:24N 38°08' E 013°22'0 0.0
2018-May-18 12:27N 38°08' E 013°22'0 0.0
2018-May-18 11:57N 38°08' E 013°22'0 0.0
2018-May-18 11:27N 38°08' E 013°22'0 0.0
2018-May-18 10:57N 38°08' E 013°22'0 0.0
2018-May-18 10:21N 38°08' E 013°22'0 0.0
2018-May-18 09:51N 38°08' E 013°22'0 0.0
2018-May-18 09:21N 38°08' E 013°23'0 0.0
2018-May-18 08:45N 38°08' E 013°22'0 0.0
2018-May-18 08:30N 38°08' E 013°22'0 0.0
2018-May-18 08:00N 38°08' E 013°22'0 0.0
2018-May-18 07:30N 38°08' E 013°23'0 0.0
2018-May-18 06:57N 38°08' E 013°22'0 0.0
2018-May-18 03:39N 38°08' E 013°22'0 0.0
2018-May-18 03:27N 38°08' E 013°22'0 0.0
2018-May-18 02:57N 38°08' E 013°22'0 0.0
2018-May-18 02:27N 38°08' E 013°22'0 0.0
2018-May-18 01:51N 38°08' E 013°22'0 0.0
2018-May-18 01:27N 38°08' E 013°22'0 0.0
2018-May-18 00:57N 38°08' E 013°22'0 0.0
2018-May-18 00:27N 38°08' E 013°22'0 0.0
2018-May-17 23:57N 38°08' E 013°23'1 0.1
2018-May-17 18:59N 38°08' E 013°22'1 2.5
2018-May-17 18:27N 38°08' E 013°24'8 9.7
2018-May-17 17:37N 38°17' E 013°23'2 9.6
2018-May-17 17:23N 38°19' E 013°23'6 1.1
2018-May-17 12:21N 38°24' E 013°19'410.8
2018-May-17 12:00N 38°20' E 013°21'1110.6
2018-May-17 10:59N 38°10' E 013°25'3 7.1
2018-May-17 10:30N 38°08' E 013°22'0 0.4
2018-May-17 10:00N 38°08' E 013°22'0 0.0
2018-May-17 09:30N 38°08' E 013°22'0 0.0
2018-May-17 09:00N 38°08' E 013°22'0 0.0
2018-May-17 08:31N 38°08' E 013°22'0 0.0
2018-May-17 08:01N 38°08' E 013°22'0 0.0
2018-May-17 07:31N 38°08' E 013°22'0 0.0
2018-May-17 07:01N 38°08' E 013°22'0 0.0
2018-May-17 06:30N 38°08' E 013°22'0 0.0
2018-May-17 05:59N 38°08' E 013°22'0 0.0
2018-May-17 05:30N 38°08' E 013°22'0 0.0
2018-May-17 05:01N 38°08' E 013°22'0 0.0
2018-May-17 04:31N 38°08' E 013°22'0 0.0
2018-May-17 03:59N 38°08' E 013°22'1 1.5
2018-May-17 03:31N 38°08' E 013°22'0 0.0
2018-May-17 02:57N 38°08' E 013°22'0 0.0
2018-May-17 02:27N 38°08' E 013°22'0 0.0
2018-May-17 01:57N 38°08' E 013°22'0 0.0
2018-May-17 01:27N 38°08' E 013°22'0 0.0
2018-May-17 00:57N 38°08' E 013°22'0 0.0
2018-May-17 00:27N 38°08' E 013°22'0 0.0
2018-May-16 23:57N 38°08' E 013°22'0 0.0
2018-May-16 23:27N 38°08' E 013°22'0 0.0
2018-May-16 22:57N 38°08' E 013°22'0 0.0
2018-May-16 22:21N 38°08' E 013°22'0 0.0
2018-May-16 21:57N 38°08' E 013°23'0 0.0
2018-May-16 21:27N 38°08' E 013°22'0 0.0
2018-May-16 20:57N 38°08' E 013°22'0 0.0
2018-May-16 20:27N 38°08' E 013°22'0 0.0
2018-May-16 19:57N 38°08' E 013°22'0 0.0
2018-May-16 19:27N 38°08' E 013°22'0 0.0
2018-May-16 18:51N 38°08' E 013°22'0 0.0
2018-May-16 18:27N 38°08' E 013°22'0 0.0
2018-May-16 17:45N 38°08' E 013°22'0 0.0
2018-May-16 17:21N 38°08' E 013°22'0 0.0
2018-May-16 16:21N 38°08' E 013°22'0 0.0
2018-May-16 15:51N 38°08' E 013°22'0 0.0
2018-May-16 15:21N 38°08' E 013°22'0 0.0
2018-May-16 14:57N 38°08' E 013°22'0 0.0
2018-May-16 13:51N 38°08' E 013°23'0 0.0
2018-May-16 13:15N 38°08' E 013°22'0 0.0
2018-May-16 12:57N 38°08' E 013°22'0 0.0
2018-May-16 12:21N 38°08' E 013°22'0 0.0
2018-May-16 11:57N 38°08' E 013°22'0 0.0
2018-May-16 11:27N 38°08' E 013°22'0 0.0
2018-May-16 10:57N 38°08' E 013°23'0 0.0
2018-May-16 10:27N 38°08' E 013°23'0 0.0
2018-May-16 09:54N 38°08' E 013°22'0 0.0
2018-May-16 09:27N 38°08' E 013°22'0 0.0
2018-May-16 08:57N 38°08' E 013°22'0 0.0
2018-May-16 08:27N 38°08' E 013°22'0 0.0
2018-May-16 07:57N 38°08' E 013°22'0 0.0
2018-May-16 07:15N 38°08' E 013°22'0 0.0
2018-May-16 07:00N 38°08' E 013°23'0 0.0
2018-May-16 06:27N 38°08' E 013°22'0 0.0
2018-May-16 05:57N 38°08' E 013°23'0 0.0
2018-May-16 05:27N 38°08' E 013°22'0 0.0
2018-May-16 04:57N 38°08' E 013°22'0 0.0
2018-May-16 04:27N 38°08' E 013°22'0 0.0
2018-May-16 03:57N 38°08' E 013°22'0 0.0
2018-May-16 03:27N 38°08' E 013°22'0 0.0
2018-May-16 02:57N 38°08' E 013°22'0 0.0
2018-May-16 02:27N 38°08' E 013°22'0 0.0
2018-May-16 01:57N 38°08' E 013°22'0 0.0
2018-May-16 01:27N 38°08' E 013°22'0 0.0
2018-May-16 00:57N 38°08' E 013°22'0 0.0
2018-May-16 00:27N 38°08' E 013°22'0 0.0
2018-May-15 23:57N 38°08' E 013°22'0 0.0
2018-May-15 23:27N 38°08' E 013°22'0 0.0
2018-May-15 22:57N 38°08' E 013°22'0 0.0
2018-May-15 22:27N 38°08' E 013°22'0 0.0
2018-May-15 21:57N 38°08' E 013°23'0 0.0
2018-May-15 21:27N 38°08' E 013°23'0 0.0
2018-May-15 20:45N 38°08' E 013°22'0 0.0
2018-May-15 20:27N 38°08' E 013°22'0 0.0
2018-May-15 18:03N 38°08' E 013°22'0 0.1
2018-May-15 17:57N 38°08' E 013°22'0 0.0
2018-May-15 17:30N 38°08' E 013°22'0 0.0
2018-May-15 16:30N 38°08' E 013°22'0 0.0
2018-May-15 15:57N 38°08' E 013°22'0 0.0
2018-May-15 15:27N 38°08' E 013°22'0 0.0
2018-May-15 14:57N 38°08' E 013°22'0 0.0
2018-May-15 14:27N 38°08' E 013°22'0 0.0
2018-May-15 13:51N 38°08' E 013°22'0 0.0
2018-May-15 13:27N 38°08' E 013°22'0 0.0
2018-May-15 12:57N 38°08' E 013°22'0 0.0
2018-May-15 12:27N 38°08' E 013°22'0 0.0
2018-May-15 11:57N 38°08' E 013°22'0 0.0
2018-May-15 11:30N 38°08' E 013°22'0 0.0
2018-May-15 10:57N 38°08' E 013°23'0 0.0
2018-May-15 10:09N 38°08' E 013°22'0 0.0
2018-May-15 09:51N 38°08' E 013°23'0 0.0
2018-May-15 08:57N 38°08' E 013°22'0 0.0
2018-May-15 08:09N 38°08' E 013°22'0 0.0
2018-May-15 07:45N 38°08' E 013°22'0 0.0
2018-May-15 07:27N 38°08' E 013°22'0 0.0
2018-May-15 06:57N 38°08' E 013°22'0 0.0
2018-May-15 06:27N 38°08' E 013°22'0 0.0
2018-May-15 05:57N 38°08' E 013°22'0 0.0
2018-May-15 05:27N 38°08' E 013°22'0 0.0
2018-May-15 05:00N 38°08' E 013°22'0 0.0
2018-May-15 04:21N 38°08' E 013°22'0 0.0
2018-May-15 03:54N 38°08' E 013°22'0 0.0
2018-May-15 03:27N 38°08' E 013°22'0 0.0
2018-May-15 02:57N 38°08' E 013°22'0 0.0
2018-May-15 02:27N 38°08' E 013°22'0 0.0
2018-May-15 01:57N 38°08' E 013°22'0 0.0
2018-May-15 01:27N 38°08' E 013°22'0 0.0
2018-May-15 00:51N 38°08' E 013°22'0 0.0
2018-May-15 00:27N 38°08' E 013°22'0 0.0
2018-May-14 23:51N 38°08' E 013°22'0 0.0
2018-May-14 23:27N 38°08' E 013°22'0 0.0
2018-May-14 22:51N 38°08' E 013°22'0 0.0
2018-May-14 22:24N 38°08' E 013°22'0 0.0
2018-May-14 21:57N 38°08' E 013°22'0 0.0
2018-May-14 21:27N 38°08' E 013°22'0 0.0
2018-May-14 17:45N 38°08' E 013°22'0 0.0
2018-May-14 17:21N 38°08' E 013°22'1 2.4
2018-May-14 17:00N 38°07' E 013°23'2 3.6
2018-May-14 16:30N 38°09' E 013°24'  
Track history (hours):
 
Tides and Currents Weather Stations Pressure Air Temp Water Temp Dewpoint Dewpoint Depression Visibility Wind Speed Wind Dir Waves Ship Positions

Ulisse

Last reported at 2018-May-24 16:04 UTC. Time now 2018-May-25 09:11 UTC.
Position N 38°08' E 013°22'.

Length 94 m; draft 3.5 m.

Type: Ship (hazmat cat B). MMSI: 247054500.

Date/timePositionNaut miles runAvg speedWind from/ knotsBaromVisibWave heightAir tempDewpointWater temp
2018-May-24 16:04N 38°08' E 013°22'0 0.0
2018-May-24 15:10N 38°08' E 013°22'1 6.2
2018-May-24 15:00N 38°07' E 013°23'1 1.5
2018-May-24 14:30N 38°08' E 013°24'5 9.8
2018-May-24 13:59N 38°13' E 013°24'610.5
2018-May-24 13:25N 38°19' E 013°23'7 1.2
2018-May-24 07:38N 38°25' E 013°20'210.2
2018-May-24 07:28N 38°23' E 013°21'510.2
2018-May-24 07:00N 38°19' E 013°22'510.6
2018-May-24 06:30N 38°14' E 013°24'510.7
2018-May-24 06:00N 38°09' E 013°26'3 6.2
2018-May-24 05:30N 38°08' E 013°22'0 0.0
2018-May-24 05:00N 38°08' E 013°22'0 0.0
2018-May-24 04:30N 38°08' E 013°22'0 0.0
2018-May-24 04:00N 38°08' E 013°22'1 1.3
2018-May-24 03:27N 38°08' E 013°22'0 0.0
2018-May-24 02:39N 38°08' E 013°22'0 0.0
2018-May-24 02:03N 38°08' E 013°22'0 0.0
2018-May-24 01:33N 38°08' E 013°22'0 0.0
2018-May-24 01:21N 38°08' E 013°22'0 0.0
2018-May-24 00:27N 38°08' E 013°22'0 0.0
2018-May-23 21:21N 38°08' E 013°22'0 0.0
2018-May-23 18:15N 38°08' E 013°22'0 0.0
2018-May-23 17:57N 38°08' E 013°22'0 0.0
2018-May-23 17:15N 38°08' E 013°22'0 0.0
2018-May-23 16:57N 38°08' E 013°22'0 0.0
2018-May-23 15:27N 38°08' E 013°23'0 0.0
2018-May-23 11:30N 38°08' E 013°22'0 0.0
2018-May-23 11:00N 38°08' E 013°22'0 0.0
2018-May-23 08:27N 38°08' E 013°22'0 0.0
2018-May-23 04:57N 38°08' E 013°23'0 0.0
2018-May-23 04:09N 38°08' E 013°23'0 0.0
2018-May-23 03:39N 38°08' E 013°22'0 0.0
2018-May-23 03:27N 38°08' E 013°22'0 0.0
2018-May-23 02:57N 38°08' E 013°23'0 0.0
2018-May-23 02:27N 38°08' E 013°22'0 0.0
2018-May-23 01:57N 38°08' E 013°22'0 0.0
2018-May-23 01:27N 38°08' E 013°22'0 0.0
2018-May-23 01:00N 38°08' E 013°22'0 0.0
2018-May-23 00:30N 38°08' E 013°22'0 0.0
2018-May-23 00:00N 38°08' E 013°22'0 0.0
2018-May-22 23:30N 38°08' E 013°23'0 0.0
2018-May-22 23:00N 38°08' E 013°22'0 0.0
2018-May-22 22:30N 38°08' E 013°22'0 0.0
2018-May-22 22:00N 38°08' E 013°22'0 0.0
2018-May-22 21:09N 38°08' E 013°23'0 0.0
2018-May-22 20:57N 38°08' E 013°22'0 0.0
2018-May-22 20:27N 38°08' E 013°22'0 0.0
2018-May-22 19:57N 38°08' E 013°22'0 0.0
2018-May-22 17:57N 38°08' E 013°22'0 0.0
2018-May-22 16:27N 38°08' E 013°22'0 0.0
2018-May-22 15:57N 38°08' E 013°22'0 0.0
2018-May-22 15:27N 38°08' E 013°23'0 0.0
2018-May-22 14:57N 38°08' E 013°22'0 0.0
2018-May-22 14:09N 38°08' E 013°22'0 0.0
2018-May-22 12:03N 38°08' E 013°22'0 0.0
2018-May-22 11:57N 38°08' E 013°22'0 0.0
2018-May-22 11:27N 38°08' E 013°23'0 0.0
2018-May-22 10:51N 38°08' E 013°22'0 0.0
2018-May-22 10:27N 38°08' E 013°23'0 0.0
2018-May-22 09:57N 38°08' E 013°22'0 0.0
2018-May-22 09:21N 38°08' E 013°22'0 0.0
2018-May-22 01:48N 38°08' E 013°23'0 0.0
2018-May-22 01:30N 38°08' E 013°22'0 0.0
2018-May-22 00:48N 38°08' E 013°22'0 0.0
2018-May-22 00:30N 38°08' E 013°22'0 0.0
2018-May-21 23:54N 38°08' E 013°23'0 0.0
2018-May-21 23:30N 38°08' E 013°23'0 0.0
2018-May-21 22:57N 38°08' E 013°22'0 0.0
2018-May-21 22:30N 38°08' E 013°22'0 0.0
2018-May-21 21:54N 38°08' E 013°23'0 0.0
2018-May-21 21:15N 38°08' E 013°23'0 0.0
2018-May-21 20:57N 38°08' E 013°23'0 0.0
2018-May-21 15:58N 38°08' E 013°22'1 1.7
2018-May-21 15:30N 38°08' E 013°22'0 0.0
2018-May-21 15:00N 38°08' E 013°22'3 4.9
2018-May-21 14:25N 38°10' E 013°25'610.7
2018-May-21 13:54N 38°15' E 013°23'510.7
2018-May-21 13:26N 38°20' E 013°22'410.2
2018-May-21 13:00N 38°24' E 013°21'510.6
2018-May-21 12:29N 38°29' E 013°19'6 1.2
2018-May-21 07:07N 38°23' E 013°20'111.0
2018-May-21 07:00N 38°22' E 013°21'510.9
2018-May-21 06:30N 38°17' E 013°23'610.9
2018-May-21 05:59N 38°11' E 013°25'4 8.7
2018-May-21 05:30N 38°07' E 013°23'1 2.0
2018-May-21 05:00N 38°08' E 013°22'0 0.0
2018-May-21 04:30N 38°08' E 013°22'0 0.0
2018-May-21 04:00N 38°08' E 013°22'1 1.4
2018-May-21 03:30N 38°08' E 013°22'0 0.0
2018-May-19 07:36N 38°08' E 013°22'0 0.0
2018-May-19 07:24N 38°08' E 013°22'0 0.0
2018-May-18 12:27N 38°08' E 013°22'0 0.0
2018-May-18 11:57N 38°08' E 013°22'0 0.0
2018-May-18 11:27N 38°08' E 013°22'0 0.0
2018-May-18 10:57N 38°08' E 013°22'0 0.0
2018-May-18 10:21N 38°08' E 013°22'0 0.0
2018-May-18 09:51N 38°08' E 013°22'0 0.0
2018-May-18 09:21N 38°08' E 013°23'0 0.0
2018-May-18 08:45N 38°08' E 013°22'0 0.0
2018-May-18 08:30N 38°08' E 013°22'0 0.0
2018-May-18 08:00N 38°08' E 013°22'0 0.0
2018-May-18 07:30N 38°08' E 013°23'0 0.0
2018-May-18 06:57N 38°08' E 013°22'0 0.0
2018-May-18 03:39N 38°08' E 013°22'0 0.0
2018-May-18 03:27N 38°08' E 013°22'0 0.0
2018-May-18 02:57N 38°08' E 013°22'0 0.0
2018-May-18 02:27N 38°08' E 013°22'0 0.0
2018-May-18 01:51N 38°08' E 013°22'0 0.0
2018-May-18 01:27N 38°08' E 013°22'0 0.0
2018-May-18 00:57N 38°08' E 013°22'0 0.0
2018-May-18 00:27N 38°08' E 013°22'0 0.0
2018-May-17 23:57N 38°08' E 013°23'1 0.1
2018-May-17 18:59N 38°08' E 013°22'1 2.5
2018-May-17 18:27N 38°08' E 013°24'8 9.7
2018-May-17 17:37N 38°17' E 013°23'2 9.6
2018-May-17 17:23N 38°19' E 013°23'6 1.1
2018-May-17 12:21N 38°24' E 013°19'410.8
2018-May-17 12:00N 38°20' E 013°21'1110.6
2018-May-17 10:59N 38°10' E 013°25'3 7.1
2018-May-17 10:30N 38°08' E 013°22'0 0.4
2018-May-17 10:00N 38°08' E 013°22'0 0.0
2018-May-17 09:30N 38°08' E 013°22'0 0.0
2018-May-17 09:00N 38°08' E 013°22'0 0.0
2018-May-17 08:31N 38°08' E 013°22'0 0.0
2018-May-17 08:01N 38°08' E 013°22'0 0.0
2018-May-17 07:31N 38°08' E 013°22'0 0.0
2018-May-17 07:01N 38°08' E 013°22'0 0.0
2018-May-17 06:30N 38°08' E 013°22'0 0.0
2018-May-17 05:59N 38°08' E 013°22'0 0.0
2018-May-17 05:30N 38°08' E 013°22'0 0.0
2018-May-17 05:01N 38°08' E 013°22'0 0.0
2018-May-17 04:31N 38°08' E 013°22'0 0.0
2018-May-17 03:59N 38°08' E 013°22'1 1.5
2018-May-17 03:31N 38°08' E 013°22'0 0.0
2018-May-17 02:57N 38°08' E 013°22'0 0.0
2018-May-17 02:27N 38°08' E 013°22'0 0.0
2018-May-17 01:57N 38°08' E 013°22'0 0.0
2018-May-17 01:27N 38°08' E 013°22'0 0.0
2018-May-17 00:57N 38°08' E 013°22'0 0.0
2018-May-17 00:27N 38°08' E 013°22'0 0.0
2018-May-16 23:57N 38°08' E 013°22'0 0.0
2018-May-16 23:27N 38°08' E 013°22'0 0.0
2018-May-16 22:57N 38°08' E 013°22'0 0.0
2018-May-16 22:21N 38°08' E 013°22'0 0.0
2018-May-16 21:57N 38°08' E 013°23'0 0.0
2018-May-16 21:27N 38°08' E 013°22'0 0.0
2018-May-16 20:57N 38°08' E 013°22'0 0.0
2018-May-16 20:27N 38°08' E 013°22'0 0.0
2018-May-16 19:57N 38°08' E 013°22'0 0.0
2018-May-16 19:27N 38°08' E 013°22'0 0.0
2018-May-16 18:51N 38°08' E 013°22'0 0.0
2018-May-16 18:27N 38°08' E 013°22'0 0.0
2018-May-16 17:45N 38°08' E 013°22'0 0.0
2018-May-16 17:21N 38°08' E 013°22'0 0.0
2018-May-16 16:21N 38°08' E 013°22'0 0.0
2018-May-16 15:51N 38°08' E 013°22'0 0.0
2018-May-16 15:21N 38°08' E 013°22'0 0.0
2018-May-16 14:57N 38°08' E 013°22'0 0.0
2018-May-16 13:51N 38°08' E 013°23'0 0.0
2018-May-16 13:15N 38°08' E 013°22'0 0.0
2018-May-16 12:57N 38°08' E 013°22'0 0.0
2018-May-16 12:21N 38°08' E 013°22'0 0.0
2018-May-16 11:57N 38°08' E 013°22'0 0.0
2018-May-16 11:27N 38°08' E 013°22'0 0.0
2018-May-16 10:57N 38°08' E 013°23'0 0.0
2018-May-16 10:27N 38°08' E 013°23'0 0.0
2018-May-16 09:54N 38°08' E 013°22'0 0.0
2018-May-16 09:27N 38°08' E 013°22'0 0.0
2018-May-16 08:57N 38°08' E 013°22'0 0.0
2018-May-16 08:27N 38°08' E 013°22'0 0.0
2018-May-16 07:57N 38°08' E 013°22'0 0.0
2018-May-16 07:15N 38°08' E 013°22'0 0.0
2018-May-16 07:00N 38°08' E 013°23'0 0.0
2018-May-16 06:27N 38°08' E 013°22'0 0.0
2018-May-16 05:57N 38°08' E 013°23'0 0.0
2018-May-16 05:27N 38°08' E 013°22'0 0.0
2018-May-16 04:57N 38°08' E 013°22'0 0.0
2018-May-16 04:27N 38°08' E 013°22'0 0.0
2018-May-16 03:57N 38°08' E 013°22'0 0.0
2018-May-16 03:27N 38°08' E 013°22'0 0.0
2018-May-16 02:57N 38°08' E 013°22'0 0.0
2018-May-16 02:27N 38°08' E 013°22'0 0.0
2018-May-16 01:57N 38°08' E 013°22'0 0.0
2018-May-16 01:27N 38°08' E 013°22'0 0.0
2018-May-16 00:57N 38°08' E 013°22'0 0.0
2018-May-16 00:27N 38°08' E 013°22'0 0.0
2018-May-15 23:57N 38°08' E 013°22'0 0.0
2018-May-15 23:27N 38°08' E 013°22'0 0.0
2018-May-15 22:57N 38°08' E 013°22'0 0.0
2018-May-15 22:27N 38°08' E 013°22'0 0.0
2018-May-15 21:57N 38°08' E 013°23'0 0.0
2018-May-15 21:27N 38°08' E 013°23'0 0.0
2018-May-15 20:45N 38°08' E 013°22'0 0.0
2018-May-15 20:27N 38°08' E 013°22'0 0.0
2018-May-15 18:03N 38°08' E 013°22'0 0.1
2018-May-15 17:57N 38°08' E 013°22'0 0.0
2018-May-15 17:30N 38°08' E 013°22'0 0.0
2018-May-15 16:30N 38°08' E 013°22'0 0.0
2018-May-15 15:57N 38°08' E 013°22'0 0.0
2018-May-15 15:27N 38°08' E 013°22'0 0.0
2018-May-15 14:57N 38°08' E 013°22'0 0.0
2018-May-15 14:27N 38°08' E 013°22'0 0.0
2018-May-15 13:51N 38°08' E 013°22'0 0.0
2018-May-15 13:27N 38°08' E 013°22'0 0.0
2018-May-15 12:57N 38°08' E 013°22'0 0.0
2018-May-15 12:27N 38°08' E 013°22'0 0.0
2018-May-15 11:57N 38°08' E 013°22'0 0.0
2018-May-15 11:30N 38°08' E 013°22'0 0.0
2018-May-15 10:57N 38°08' E 013°23'0 0.0
2018-May-15 10:09N 38°08' E 013°22'0 0.0
2018-May-15 09:51N 38°08' E 013°23'0 0.0
2018-May-15 08:57N 38°08' E 013°22'0 0.0
2018-May-15 08:09N 38°08' E 013°22'0 0.0
2018-May-15 07:45N 38°08' E 013°22'0 0.0
2018-May-15 07:27N 38°08' E 013°22'0 0.0
2018-May-15 06:57N 38°08' E 013°22'0 0.0
2018-May-15 06:27N 38°08' E 013°22'0 0.0
2018-May-15 05:57N 38°08' E 013°22'0 0.0
2018-May-15 05:27N 38°08' E 013°22'0 0.0
2018-May-15 05:00N 38°08' E 013°22'0 0.0
2018-May-15 04:21N 38°08' E 013°22'0 0.0
2018-May-15 03:54N 38°08' E 013°22'0 0.0
2018-May-15 03:27N 38°08' E 013°22'0 0.0
2018-May-15 02:57N 38°08' E 013°22'0 0.0
2018-May-15 02:27N 38°08' E 013°22'0 0.0
2018-May-15 01:57N 38°08' E 013°22'0 0.0
2018-May-15 01:27N 38°08' E 013°22'0 0.0
2018-May-15 00:51N 38°08' E 013°22'0 0.0
2018-May-15 00:27N 38°08' E 013°22'0 0.0
2018-May-14 23:51N 38°08' E 013°22'0 0.0
2018-May-14 23:27N 38°08' E 013°22'0 0.0
2018-May-14 22:51N 38°08' E 013°22'0 0.0
2018-May-14 22:24N 38°08' E 013°22'0 0.0
2018-May-14 21:57N 38°08' E 013°22'0 0.0
2018-May-14 21:27N 38°08' E 013°22'0 0.0
2018-May-14 17:45N 38°08' E 013°22'0 0.0
2018-May-14 17:21N 38°08' E 013°22'1 2.4
2018-May-14 17:00N 38°07' E 013°23'2 3.6
2018-May-14 16:30N 38°09' E 013°24'  

Dump ship's entire track history